createdAt,value
2018-12-07T00:00:37.206Z,939.51
2018-12-07T00:01:37.180Z,939.54
2018-12-07T00:02:37.211Z,939.50
2018-12-07T00:03:37.170Z,939.54
2018-12-07T00:04:37.142Z,939.48
2018-12-07T00:05:37.134Z,939.53
2018-12-07T00:06:37.141Z,939.51
2018-12-07T00:07:37.123Z,939.52
2018-12-07T00:08:37.341Z,939.45
2018-12-07T00:09:37.089Z,939.48
2018-12-07T00:10:37.076Z,939.40
2018-12-07T00:11:37.083Z,939.42
2018-12-07T00:12:37.078Z,939.44
2018-12-07T00:13:37.051Z,939.42
2018-12-07T00:14:37.033Z,939.43
2018-12-07T00:15:37.031Z,939.43
2018-12-07T00:16:37.013Z,939.42
2018-12-07T00:17:37.014Z,939.41
2018-12-07T00:18:36.988Z,939.35
2018-12-07T00:19:36.989Z,939.42
2018-12-07T00:20:36.973Z,939.38
2018-12-07T00:21:36.954Z,939.37
2018-12-07T00:22:36.979Z,939.35
2018-12-07T00:23:36.933Z,939.41
2018-12-07T00:24:36.923Z,939.36
2018-12-07T00:25:36.916Z,939.36
2018-12-07T00:26:36.900Z,939.37
2018-12-07T00:27:36.903Z,939.36
2018-12-07T00:28:36.881Z,939.38
2018-12-07T00:29:36.871Z,939.42
2018-12-07T00:30:36.874Z,939.39
2018-12-07T00:31:36.869Z,939.38
2018-12-07T00:32:36.849Z,939.37
2018-12-07T00:33:36.838Z,939.35
2018-12-07T00:34:36.811Z,939.39
2018-12-07T00:35:36.801Z,939.41
2018-12-07T00:36:36.803Z,939.39
2018-12-07T00:37:36.794Z,939.42
2018-12-07T00:38:36.766Z,939.36
2018-12-07T00:39:36.757Z,939.34
2018-12-07T00:40:36.748Z,939.36
2018-12-07T00:41:36.751Z,939.30
2018-12-07T00:42:36.763Z,939.30
2018-12-07T00:43:36.718Z,939.24
2018-12-07T00:44:36.701Z,939.29
2018-12-07T00:45:36.690Z,939.22
2018-12-07T00:46:36.681Z,939.24
2018-12-07T00:47:36.676Z,939.23
2018-12-07T00:48:36.679Z,939.14
2018-12-07T00:49:36.667Z,939.15
2018-12-07T00:50:36.634Z,939.09
2018-12-07T00:51:36.623Z,939.15
2018-12-07T00:52:36.614Z,939.17
2018-12-07T00:53:36.618Z,939.12
2018-12-07T00:54:36.590Z,939.05
2018-12-07T00:55:36.586Z,939.05
2018-12-07T00:56:36.575Z,939.00
2018-12-07T00:57:36.565Z,939.00
2018-12-07T00:58:36.609Z,939.02
2018-12-07T00:59:36.548Z,939.04
2018-12-07T01:00:36.527Z,938.98
2018-12-07T01:01:36.517Z,938.98
2018-12-07T01:02:36.505Z,939.02
2018-12-07T01:03:36.533Z,938.98
2018-12-07T01:04:36.482Z,938.99
2018-12-07T01:05:36.488Z,939.01
2018-12-07T01:06:36.461Z,939.05
2018-12-07T01:07:36.453Z,939.01
2018-12-07T01:08:36.453Z,939.05
2018-12-07T01:09:36.475Z,939.06
2018-12-07T01:10:36.429Z,939.05
2018-12-07T01:11:36.404Z,939.11
2018-12-07T01:12:36.395Z,939.10
2018-12-07T01:13:36.399Z,939.10
2018-12-07T01:14:36.387Z,939.08
2018-12-07T01:15:36.372Z,939.09
2018-12-07T01:16:36.354Z,939.10
2018-12-07T01:17:36.346Z,939.10
2018-12-07T01:18:36.345Z,939.08
2018-12-07T01:19:36.319Z,939.13
2018-12-07T01:20:36.356Z,939.12
2018-12-07T01:21:36.310Z,939.13
2018-12-07T01:22:36.290Z,939.16
2018-12-07T01:23:36.293Z,939.14
2018-12-07T01:24:36.259Z,939.12
2018-12-07T01:25:36.289Z,939.18
2018-12-07T01:26:36.242Z,939.18
2018-12-07T01:27:36.230Z,939.19
2018-12-07T01:28:36.241Z,939.18
2018-12-07T01:29:36.205Z,939.18
2018-12-07T01:30:36.192Z,939.20
2018-12-07T01:31:36.241Z,939.24
2018-12-07T01:32:36.180Z,939.18
2018-12-07T01:33:36.176Z,939.18
2018-12-07T01:34:36.157Z,939.19
2018-12-07T01:35:36.180Z,939.14
2018-12-07T01:36:36.134Z,939.19
2018-12-07T01:37:36.125Z,939.13
2018-12-07T01:38:36.124Z,939.18
2018-12-07T01:39:36.097Z,939.18
2018-12-07T01:40:36.116Z,939.15
2018-12-07T01:41:36.078Z,939.17
2018-12-07T01:42:36.070Z,939.17
2018-12-07T01:43:36.067Z,939.22
2018-12-07T01:44:36.053Z,939.15
2018-12-07T01:45:36.037Z,939.10
2018-12-07T01:46:36.018Z,939.12
2018-12-07T01:47:36.014Z,939.03
2018-12-07T01:48:36.013Z,939.04
2018-12-07T01:49:35.993Z,939.03
2018-12-07T01:50:35.988Z,939.01
2018-12-07T01:51:35.970Z,938.95
2018-12-07T01:52:35.952Z,938.96
2018-12-07T01:53:35.963Z,938.93
2018-12-07T01:54:35.929Z,938.91
2018-12-07T01:55:35.937Z,938.94
2018-12-07T01:56:35.917Z,938.94
2018-12-07T01:57:35.908Z,938.91
2018-12-07T01:58:35.909Z,938.89
2018-12-07T01:59:35.878Z,938.85
2018-12-07T02:00:35.880Z,938.84
2018-12-07T02:01:35.860Z,938.83
2018-12-07T02:02:35.839Z,938.78
2018-12-07T02:03:35.846Z,938.78
2018-12-07T02:04:35.830Z,938.77
2018-12-07T02:05:35.816Z,938.80
2018-12-07T02:06:35.794Z,938.80
2018-12-07T02:07:35.790Z,938.82
2018-12-07T02:08:35.800Z,938.77
2018-12-07T02:09:35.791Z,938.70
2018-12-07T02:10:35.758Z,938.75
2018-12-07T02:11:35.745Z,938.73
2018-12-07T02:12:35.745Z,938.76
2018-12-07T02:13:35.752Z,938.72
2018-12-07T02:14:35.712Z,938.72
2018-12-07T02:15:35.695Z,938.78
2018-12-07T02:16:35.688Z,938.81
2018-12-07T02:17:35.699Z,938.79
2018-12-07T02:18:35.686Z,938.79
2018-12-07T02:19:35.665Z,938.77
2018-12-07T02:20:35.648Z,938.76
2018-12-07T02:21:35.635Z,938.76
2018-12-07T02:22:35.648Z,938.74
2018-12-07T02:23:35.626Z,938.77
2018-12-07T02:24:35.602Z,938.71
2018-12-07T02:25:35.592Z,938.75
2018-12-07T02:26:35.589Z,938.71
2018-12-07T02:27:35.566Z,938.69
2018-12-07T02:28:35.567Z,938.67
2018-12-07T02:29:35.547Z,938.66
2018-12-07T02:30:35.532Z,938.58
2018-12-07T02:31:35.560Z,938.56
2018-12-07T02:32:35.510Z,938.52
2018-12-07T02:33:35.526Z,938.53
2018-12-07T02:34:35.494Z,938.47
2018-12-07T02:35:35.490Z,938.46
2018-12-07T02:36:35.479Z,938.39
2018-12-07T02:37:35.466Z,938.36
2018-12-07T02:38:35.462Z,938.37
2018-12-07T02:39:35.439Z,938.39
2018-12-07T02:40:35.426Z,938.36
2018-12-07T02:41:35.417Z,938.34
2018-12-07T02:42:35.405Z,938.28
2018-12-07T02:43:35.409Z,938.28
2018-12-07T02:44:35.376Z,938.25
2018-12-07T02:45:35.378Z,938.23
2018-12-07T02:46:35.352Z,938.21
2018-12-07T02:47:35.357Z,938.18
2018-12-07T02:48:35.360Z,938.18
2018-12-07T02:49:35.336Z,938.14
2018-12-07T02:50:35.310Z,938.17
2018-12-07T02:51:35.304Z,938.16
2018-12-07T02:52:35.312Z,938.11
2018-12-07T02:53:35.304Z,938.01
2018-12-07T02:54:35.268Z,938.09
2018-12-07T02:55:35.299Z,938.05
2018-12-07T02:56:35.246Z,938.08
2018-12-07T02:57:35.233Z,938.05
2018-12-07T02:58:35.250Z,938.03
2018-12-07T02:59:35.215Z,938.02
2018-12-07T03:00:35.198Z,938.03
2018-12-07T03:01:35.185Z,938.02
2018-12-07T03:02:35.177Z,938.02
2018-12-07T03:03:35.200Z,938.03
2018-12-07T03:04:35.166Z,938.03
2018-12-07T03:05:35.203Z,938.03
2018-12-07T03:06:35.140Z,938.02
2018-12-07T03:07:35.123Z,937.99
2018-12-07T03:08:35.127Z,937.95
2018-12-07T03:09:35.133Z,937.98
2018-12-07T03:10:35.105Z,937.96
2018-12-07T03:11:35.075Z,937.96
2018-12-07T03:12:35.071Z,937.95
2018-12-07T03:13:35.056Z,937.88
2018-12-07T03:14:35.062Z,937.93
2018-12-07T03:15:35.040Z,937.93
2018-12-07T03:16:35.023Z,937.91
2018-12-07T03:17:35.011Z,937.89
2018-12-07T03:18:35.036Z,937.90
2018-12-07T03:19:35.004Z,937.95
2018-12-07T03:20:34.978Z,937.96
2018-12-07T03:21:34.979Z,937.91
2018-12-07T03:22:34.953Z,937.92
2018-12-07T03:23:34.946Z,937.90
2018-12-07T03:24:35.015Z,937.94
2018-12-07T03:25:34.930Z,937.93
2018-12-07T03:26:34.920Z,937.89
2018-12-07T03:27:34.916Z,937.95
2018-12-07T03:28:34.895Z,937.91
2018-12-07T03:29:34.902Z,937.92
2018-12-07T03:30:34.877Z,937.88
2018-12-07T03:31:34.866Z,937.87
2018-12-07T03:32:34.853Z,937.85
2018-12-07T03:33:34.834Z,937.80
2018-12-07T03:34:34.879Z,937.83
2018-12-07T03:35:34.820Z,937.83
2018-12-07T03:36:34.808Z,937.82
2018-12-07T03:37:34.786Z,937.83
2018-12-07T03:38:34.782Z,937.79
2018-12-07T03:39:34.797Z,937.78
2018-12-07T03:40:34.799Z,937.82
2018-12-07T03:41:34.753Z,937.79
2018-12-07T03:42:34.745Z,937.79
2018-12-07T03:43:34.728Z,937.76
2018-12-07T03:44:34.731Z,937.75
2018-12-07T03:45:34.716Z,937.76
2018-12-07T03:46:34.687Z,937.78
2018-12-07T03:47:34.682Z,937.74
2018-12-07T03:48:34.671Z,937.75
2018-12-07T03:49:34.670Z,937.71
2018-12-07T03:50:34.668Z,937.72
2018-12-07T03:51:34.692Z,937.67
2018-12-07T03:52:34.633Z,937.69
2018-12-07T03:53:34.653Z,937.63
2018-12-07T03:54:34.620Z,937.63
2018-12-07T03:55:34.596Z,937.67
2018-12-07T03:56:34.580Z,937.64
2018-12-07T03:57:34.578Z,937.65
2018-12-07T03:58:34.557Z,937.64
2018-12-07T03:59:34.561Z,937.69
2018-12-07T04:00:34.575Z,937.65
2018-12-07T04:01:34.525Z,937.65
2018-12-07T04:02:34.510Z,937.65
2018-12-07T04:03:34.501Z,937.62
2018-12-07T04:04:34.509Z,937.62
2018-12-07T04:05:34.478Z,937.63
2018-12-07T04:06:34.486Z,937.69
2018-12-07T04:07:34.463Z,937.65
2018-12-07T04:08:34.455Z,937.65
2018-12-07T04:09:34.456Z,937.63
2018-12-07T04:10:34.431Z,937.67
2018-12-07T04:11:34.413Z,937.65
2018-12-07T04:12:34.400Z,937.64
2018-12-07T04:13:34.396Z,937.67
2018-12-07T04:14:34.396Z,937.59
2018-12-07T04:15:34.379Z,937.61
2018-12-07T04:16:34.367Z,937.59
2018-12-07T04:17:34.343Z,937.58
2018-12-07T04:18:34.335Z,937.58
2018-12-07T04:19:34.384Z,937.59
2018-12-07T04:20:34.313Z,937.57
2018-12-07T04:21:34.301Z,937.57
2018-12-07T04:22:34.305Z,937.51
2018-12-07T04:23:34.280Z,937.53
2018-12-07T04:24:34.292Z,937.56
2018-12-07T04:25:34.257Z,937.53
2018-12-07T04:26:34.253Z,937.53
2018-12-07T04:27:34.251Z,937.52
2018-12-07T04:28:36.156Z,937.56
2018-12-07T04:29:34.235Z,937.56
2018-12-07T04:30:34.208Z,937.57
2018-12-07T04:31:34.205Z,937.52
2018-12-07T04:32:34.188Z,937.53
2018-12-07T04:33:34.182Z,937.48
2018-12-07T04:34:34.181Z,937.48
2018-12-07T04:35:34.151Z,937.43
2018-12-07T04:36:34.152Z,937.45
2018-12-07T04:37:34.126Z,937.40
2018-12-07T04:38:34.113Z,937.42
2018-12-07T04:39:34.125Z,937.38
2018-12-07T04:40:34.093Z,937.32
2018-12-07T04:41:34.084Z,937.32
2018-12-07T04:42:34.071Z,937.32
2018-12-07T04:43:34.073Z,937.35
2018-12-07T04:44:34.075Z,937.31
2018-12-07T04:45:34.043Z,937.24
2018-12-07T04:46:34.034Z,937.23
2018-12-07T04:47:34.012Z,937.26
2018-12-07T04:48:34.018Z,937.28
2018-12-07T04:49:34.012Z,937.24
2018-12-07T04:50:33.995Z,937.21
2018-12-07T04:51:33.974Z,937.19
2018-12-07T04:52:33.987Z,937.16
2018-12-07T04:53:33.967Z,937.14
2018-12-07T04:54:33.989Z,937.16
2018-12-07T04:55:33.927Z,937.16
2018-12-07T04:56:33.933Z,937.15
2018-12-07T04:57:33.910Z,937.13
2018-12-07T04:58:33.922Z,937.16
2018-12-07T04:59:33.910Z,937.11
2018-12-07T05:00:33.918Z,937.09
2018-12-07T05:01:33.862Z,937.10
2018-12-07T05:02:33.878Z,937.06
2018-12-07T05:03:33.842Z,937.10
2018-12-07T05:04:33.940Z,937.04
2018-12-07T05:05:33.825Z,937.04
2018-12-07T05:06:33.841Z,937.05
2018-12-07T05:07:33.793Z,937.03
2018-12-07T05:08:33.815Z,937.00
2018-12-07T05:09:33.795Z,937.05
2018-12-07T05:10:33.798Z,937.03
2018-12-07T05:11:33.753Z,937.00
2018-12-07T05:12:33.803Z,937.08
2018-12-07T05:13:33.733Z,937.03
2018-12-07T05:14:33.785Z,937.03
2018-12-07T05:15:33.717Z,937.03
2018-12-07T05:16:33.751Z,937.01
2018-12-07T05:17:33.681Z,937.00
2018-12-07T05:18:33.720Z,937.02
2018-12-07T05:19:33.683Z,936.97
2018-12-07T05:20:33.696Z,937.01
2018-12-07T05:21:33.638Z,936.98
2018-12-07T05:22:33.704Z,937.01
2018-12-07T05:23:33.627Z,937.03
2018-12-07T05:24:34.708Z,937.08
2018-12-07T05:25:33.593Z,937.01
2018-12-07T05:26:33.644Z,937.05
2018-12-07T05:27:33.584Z,937.06
2018-12-07T05:28:33.630Z,937.07
2018-12-07T05:29:33.607Z,937.06
2018-12-07T05:30:34.382Z,937.08
2018-12-07T05:31:33.531Z,937.05
2018-12-07T05:32:34.392Z,937.01
2018-12-07T05:33:33.510Z,937.05
2018-12-07T05:34:34.387Z,937.06
2018-12-07T05:35:33.512Z,937.02
2018-12-07T05:36:34.380Z,937.02
2018-12-07T05:37:33.469Z,936.98
2018-12-07T05:38:33.507Z,937.00
2018-12-07T05:39:33.440Z,936.98
2018-12-07T05:40:33.520Z,936.95
2018-12-07T05:41:33.437Z,937.04
2018-12-07T05:42:33.470Z,936.98
2018-12-07T05:43:33.399Z,936.97
2018-12-07T05:44:33.464Z,936.98
2018-12-07T05:45:33.397Z,936.95
2018-12-07T05:46:33.437Z,936.95
2018-12-07T05:47:33.355Z,936.96
2018-12-07T05:48:33.419Z,936.90
2018-12-07T05:49:33.332Z,936.99
2018-12-07T05:50:33.389Z,936.97
2018-12-07T05:51:33.424Z,936.99
2018-12-07T05:52:33.375Z,936.95
2018-12-07T05:53:33.288Z,937.00
2018-12-07T05:54:33.350Z,936.98
2018-12-07T05:55:33.294Z,937.01
2018-12-07T05:56:33.342Z,936.97
2018-12-07T05:57:33.246Z,936.92
2018-12-07T05:58:33.310Z,936.90
2018-12-07T05:59:33.221Z,936.91
2018-12-07T06:00:33.292Z,936.87
2018-12-07T06:01:33.204Z,936.89
2018-12-07T06:02:33.352Z,936.86
2018-12-07T06:03:33.176Z,936.89
2018-12-07T06:04:33.252Z,936.89
2018-12-07T06:05:33.169Z,936.89
2018-12-07T06:06:33.154Z,936.85
2018-12-07T06:07:33.144Z,936.83
2018-12-07T06:08:33.229Z,936.85
2018-12-07T06:09:33.167Z,936.78
2018-12-07T06:10:33.191Z,936.82
2018-12-07T06:11:33.087Z,936.80
2018-12-07T06:12:33.183Z,936.80
2018-12-07T06:13:33.069Z,936.85
2018-12-07T06:14:33.058Z,936.79
2018-12-07T06:15:33.061Z,936.82
2018-12-07T06:16:33.044Z,936.80
2018-12-07T06:17:33.029Z,936.74
2018-12-07T06:18:33.017Z,936.76
2018-12-07T06:19:33.090Z,936.78
2018-12-07T06:20:33.005Z,936.78
2018-12-07T06:21:33.038Z,936.71
2018-12-07T06:22:32.968Z,936.72
2018-12-07T06:23:32.965Z,936.77
2018-12-07T06:24:32.967Z,936.75
2018-12-07T06:25:32.953Z,936.74
2018-12-07T06:26:32.991Z,936.79
2018-12-07T06:27:32.909Z,936.71
2018-12-07T06:28:32.908Z,936.73
2018-12-07T06:29:32.903Z,936.77
2018-12-07T06:30:33.011Z,936.76
2018-12-07T06:31:32.873Z,936.76
2018-12-07T06:32:36.071Z,936.77
2018-12-07T06:33:32.850Z,936.73
2018-12-07T06:34:32.833Z,936.73
2018-12-07T06:35:32.843Z,936.76
2018-12-07T06:36:32.842Z,936.74
2018-12-07T06:37:32.803Z,936.68
2018-12-07T06:38:32.803Z,936.73
2018-12-07T06:39:32.785Z,936.67
2018-12-07T06:40:32.790Z,936.66
2018-12-07T06:41:32.756Z,936.66
2018-12-07T06:42:32.764Z,936.67
2018-12-07T06:43:32.741Z,936.63
2018-12-07T06:44:32.724Z,936.62
2018-12-07T06:45:32.730Z,936.68
2018-12-07T06:46:32.708Z,936.63
2018-12-07T06:47:32.708Z,936.66
2018-12-07T06:48:32.682Z,936.62
2018-12-07T06:49:32.668Z,936.64
2018-12-07T06:50:32.675Z,936.57
2018-12-07T06:51:32.710Z,936.61
2018-12-07T06:52:32.635Z,936.63
2018-12-07T06:53:32.631Z,936.62
2018-12-07T06:54:32.641Z,936.62
2018-12-07T06:55:32.625Z,936.58
2018-12-07T06:56:32.594Z,936.59
2018-12-07T06:57:32.587Z,936.55
2018-12-07T06:58:32.577Z,936.56
2018-12-07T06:59:32.568Z,936.46
2018-12-07T07:00:32.625Z,936.50
2018-12-07T07:01:32.542Z,936.50
2018-12-07T07:02:32.532Z,936.48
2018-12-07T07:03:32.518Z,936.41
2018-12-07T07:04:32.518Z,936.49
2018-12-07T07:05:32.508Z,936.46
2018-12-07T07:06:32.512Z,936.48
2018-12-07T07:07:32.471Z,936.46
2018-12-07T07:08:32.460Z,936.40
2018-12-07T07:09:32.448Z,936.39
2018-12-07T07:10:32.459Z,936.39
2018-12-07T07:11:32.425Z,936.41
2018-12-07T07:12:32.443Z,936.45
2018-12-07T07:13:32.405Z,936.45
2018-12-07T07:14:32.393Z,936.46
2018-12-07T07:15:32.401Z,936.46
2018-12-07T07:16:32.378Z,936.37
2018-12-07T07:17:32.361Z,936.42
2018-12-07T07:18:32.365Z,936.36
2018-12-07T07:19:32.338Z,936.43
2018-12-07T07:20:32.344Z,936.43
2018-12-07T07:21:32.321Z,936.41
2018-12-07T07:22:32.306Z,936.39
2018-12-07T07:23:32.293Z,936.33
2018-12-07T07:24:32.300Z,936.35
2018-12-07T07:25:32.362Z,936.39
2018-12-07T07:26:32.356Z,936.33
2018-12-07T07:27:39.369Z,936.38
2018-12-07T07:28:32.246Z,936.26
2018-12-07T07:29:32.240Z,936.29
2018-12-07T07:30:32.233Z,936.26
2018-12-07T07:31:32.205Z,936.22
2018-12-07T07:32:32.194Z,936.23
2018-12-07T07:33:32.188Z,936.28
2018-12-07T07:34:32.184Z,936.11
2018-12-07T07:35:32.176Z,936.20
2018-12-07T07:36:32.157Z,936.25
2018-12-07T07:37:32.153Z,936.20
2018-12-07T07:38:32.131Z,936.16
2018-12-07T07:39:32.116Z,936.23
2018-12-07T07:40:32.120Z,936.24
2018-12-07T07:41:32.095Z,936.25
2018-12-07T07:42:32.093Z,936.22
2018-12-07T07:43:32.078Z,936.20
2018-12-07T07:44:32.060Z,936.17
2018-12-07T07:45:32.065Z,936.18
2018-12-07T07:46:32.041Z,936.22
2018-12-07T07:47:32.028Z,936.16
2018-12-07T07:48:32.029Z,936.19
2018-12-07T07:49:32.004Z,936.16
2018-12-07T07:50:32.018Z,936.10
2018-12-07T07:51:31.988Z,936.13
2018-12-07T07:52:31.972Z,936.06
2018-12-07T07:53:31.966Z,936.09
2018-12-07T07:54:31.961Z,936.09
2018-12-07T07:55:31.956Z,935.93
2018-12-07T07:56:31.926Z,936.05
2018-12-07T07:57:31.932Z,936.05
2018-12-07T07:58:31.905Z,935.91
2018-12-07T07:59:31.894Z,936.00
2018-12-07T08:00:31.908Z,935.92
2018-12-07T08:01:31.873Z,935.99
2018-12-07T08:02:31.860Z,935.91
2018-12-07T08:03:31.854Z,935.96
2018-12-07T08:04:31.838Z,935.93
2018-12-07T08:05:31.847Z,935.93
2018-12-07T08:06:31.818Z,935.92
2018-12-07T08:07:31.805Z,935.93
2018-12-07T08:08:31.804Z,935.89
2018-12-07T08:09:31.782Z,935.88
2018-12-07T08:10:31.786Z,935.88
2018-12-07T08:11:31.761Z,935.86
2018-12-07T08:12:31.751Z,935.87
2018-12-07T08:13:31.738Z,935.83
2018-12-07T08:14:31.739Z,935.85
2018-12-07T08:15:31.756Z,935.73
2018-12-07T08:16:31.705Z,935.80
2018-12-07T08:17:31.699Z,935.84
2018-12-07T08:18:31.681Z,935.82
2018-12-07T08:19:31.670Z,935.79
2018-12-07T08:20:31.669Z,935.78
2018-12-07T08:21:31.664Z,935.80
2018-12-07T08:22:31.639Z,935.75
2018-12-07T08:23:31.625Z,935.77
2018-12-07T08:24:31.616Z,935.75
2018-12-07T08:25:31.610Z,935.69
2018-12-07T08:26:31.612Z,935.70
2018-12-07T08:27:31.588Z,935.67
2018-12-07T08:28:31.575Z,935.69
2018-12-07T08:29:31.560Z,935.66
2018-12-07T08:30:31.549Z,935.70
2018-12-07T08:31:31.552Z,935.68
2018-12-07T08:32:31.535Z,935.65
2018-12-07T08:33:31.515Z,935.61
2018-12-07T08:34:31.505Z,935.54
2018-12-07T08:35:31.493Z,935.57
2018-12-07T08:36:31.496Z,935.50
2018-12-07T08:37:31.474Z,935.45
2018-12-07T08:38:31.475Z,935.50
2018-12-07T08:39:31.456Z,935.45
2018-12-07T08:40:31.437Z,935.47
2018-12-07T08:41:31.442Z,935.48
2018-12-07T08:42:31.422Z,935.48
2018-12-07T08:43:31.404Z,935.49
2018-12-07T08:44:31.399Z,935.48
2018-12-07T08:45:31.381Z,935.43
2018-12-07T08:46:31.386Z,935.43
2018-12-07T08:47:31.359Z,935.41
2018-12-07T08:48:31.348Z,935.43
2018-12-07T08:49:31.336Z,935.41
2018-12-07T08:50:31.334Z,935.34
2018-12-07T08:51:31.339Z,935.34
2018-12-07T08:52:31.310Z,935.31
2018-12-07T08:53:31.294Z,935.31
2018-12-07T08:54:31.281Z,935.29
2018-12-07T08:55:31.276Z,935.28
2018-12-07T08:56:31.282Z,935.26
2018-12-07T08:57:31.251Z,935.25
2018-12-07T08:58:31.246Z,935.20
2018-12-07T08:59:31.227Z,935.21
2018-12-07T09:00:31.220Z,935.13
2018-12-07T09:01:31.218Z,935.12
2018-12-07T09:02:31.206Z,935.17
2018-12-07T09:03:31.187Z,935.13
2018-12-07T09:04:31.170Z,935.07
2018-12-07T09:05:31.161Z,935.10
2018-12-07T09:06:31.241Z,935.08
2018-12-07T09:07:31.141Z,935.02
2018-12-07T09:08:31.127Z,935.05
2018-12-07T09:09:31.115Z,935.04
2018-12-07T09:10:31.121Z,935.07
2018-12-07T09:11:31.113Z,935.07
2018-12-07T09:12:31.083Z,935.10
2018-12-07T09:13:31.133Z,935.02
2018-12-07T09:14:31.068Z,935.08
2018-12-07T09:15:31.059Z,935.05
2018-12-07T09:16:31.056Z,935.06
2018-12-07T09:17:31.037Z,935.05
2018-12-07T09:18:31.014Z,935.07
2018-12-07T09:19:31.004Z,935.09
2018-12-07T09:20:30.999Z,935.09
2018-12-07T09:21:30.998Z,935.01
2018-12-07T09:22:30.972Z,935.06
2018-12-07T09:23:30.963Z,935.11
2018-12-07T09:24:30.950Z,935.04
2018-12-07T09:25:30.941Z,935.04
2018-12-07T09:26:30.951Z,935.05
2018-12-07T09:27:30.934Z,935.04
2018-12-07T09:28:30.904Z,934.97
2018-12-07T09:29:30.899Z,934.96
2018-12-07T09:30:30.882Z,934.99
2018-12-07T09:31:30.887Z,934.99
2018-12-07T09:32:30.866Z,935.01
2018-12-07T09:33:30.848Z,935.00
2018-12-07T09:34:30.843Z,935.01
2018-12-07T09:35:30.828Z,935.01
2018-12-07T09:36:30.832Z,934.99
2018-12-07T09:37:30.811Z,934.92
2018-12-07T09:38:30.801Z,934.94
2018-12-07T09:39:30.783Z,934.91
2018-12-07T09:40:30.779Z,934.89
2018-12-07T09:41:30.775Z,934.84
2018-12-07T09:42:30.749Z,934.82
2018-12-07T09:43:30.761Z,934.79
2018-12-07T09:44:30.733Z,934.78
2018-12-07T09:45:30.726Z,934.77
2018-12-07T09:46:30.729Z,934.74
2018-12-07T09:47:30.702Z,934.71
2018-12-07T09:48:30.681Z,934.73
2018-12-07T09:49:30.673Z,934.69
2018-12-07T09:50:30.664Z,934.69
2018-12-07T09:51:30.673Z,934.70
2018-12-07T09:52:30.644Z,934.68
2018-12-07T09:53:30.637Z,934.61
2018-12-07T09:54:30.616Z,934.68
2018-12-07T09:55:30.614Z,934.64
2018-12-07T09:56:30.612Z,934.66
2018-12-07T09:57:30.583Z,934.59
2018-12-07T09:58:30.575Z,934.57
2018-12-07T09:59:30.562Z,934.59
2018-12-07T10:00:30.559Z,934.60
2018-12-07T10:01:30.581Z,934.60
2018-12-07T10:02:30.530Z,934.61
2018-12-07T10:03:30.516Z,934.58
2018-12-07T10:04:30.516Z,934.53
2018-12-07T10:05:30.496Z,934.51
2018-12-07T10:06:30.490Z,934.52
2018-12-07T10:07:30.491Z,934.52
2018-12-07T10:08:30.468Z,934.52
2018-12-07T10:09:30.451Z,934.48
2018-12-07T10:10:32.007Z,934.46
2018-12-07T10:11:30.428Z,934.43
2018-12-07T10:12:30.443Z,934.46
2018-12-07T10:13:30.410Z,934.48
2018-12-07T10:14:30.413Z,934.43
2018-12-07T10:15:30.390Z,934.46
2018-12-07T10:16:30.375Z,934.43
2018-12-07T10:17:30.378Z,934.38
2018-12-07T10:18:30.358Z,934.34
2018-12-07T10:19:30.345Z,934.27
2018-12-07T10:20:30.332Z,934.26
2018-12-07T10:21:30.321Z,934.22
2018-12-07T10:22:30.343Z,934.16
2018-12-07T10:23:30.302Z,934.13
2018-12-07T10:24:30.285Z,934.14
2018-12-07T10:25:30.280Z,934.14
2018-12-07T10:26:30.269Z,934.16
2018-12-07T10:27:30.270Z,934.13
2018-12-07T10:28:30.242Z,934.11
2018-12-07T10:29:30.233Z,934.09
2018-12-07T10:30:30.233Z,934.04
2018-12-07T10:31:30.213Z,934.00
2018-12-07T10:32:30.219Z,933.98
2018-12-07T10:33:30.190Z,933.91
2018-12-07T10:34:30.185Z,933.92
2018-12-07T10:35:30.175Z,933.90
2018-12-07T10:36:30.161Z,933.90
2018-12-07T10:37:30.158Z,933.85
2018-12-07T10:38:30.134Z,933.86
2018-12-07T10:39:30.131Z,933.83
2018-12-07T10:40:30.111Z,933.79
2018-12-07T10:41:30.110Z,933.76
2018-12-07T10:42:30.111Z,933.75
2018-12-07T10:43:30.081Z,933.76
2018-12-07T10:44:30.066Z,933.66
2018-12-07T10:45:30.055Z,933.67
2018-12-07T10:46:30.043Z,933.64
2018-12-07T10:47:30.059Z,933.61
2018-12-07T10:48:30.027Z,933.59
2018-12-07T10:49:30.574Z,933.55
2018-12-07T10:50:30.002Z,933.55
2018-12-07T10:51:29.995Z,933.56
2018-12-07T10:52:30.006Z,933.53
2018-12-07T10:53:29.967Z,933.48
2018-12-07T10:54:29.972Z,933.46
2018-12-07T10:55:29.948Z,933.45
2018-12-07T10:56:29.933Z,933.40
2018-12-07T10:57:29.938Z,933.44
2018-12-07T10:58:29.919Z,933.42
2018-12-07T10:59:29.908Z,933.41
2018-12-07T11:00:29.903Z,933.39
2018-12-07T11:01:29.884Z,933.37
2018-12-07T11:02:29.885Z,933.37
2018-12-07T11:03:29.867Z,933.39
2018-12-07T11:04:29.845Z,933.40
2018-12-07T11:05:29.847Z,933.36
2018-12-07T11:06:29.834Z,933.28
2018-12-07T11:07:29.828Z,933.31
2018-12-07T11:08:29.809Z,933.27
2018-12-07T11:09:29.799Z,933.27
2018-12-07T11:10:29.791Z,933.16
2018-12-07T11:11:29.774Z,933.11
2018-12-07T11:12:29.775Z,933.11
2018-12-07T11:13:29.750Z,933.10
2018-12-07T11:14:29.752Z,933.01
2018-12-07T11:15:29.727Z,933.08
2018-12-07T11:16:29.725Z,932.99
2018-12-07T11:17:29.728Z,932.96
2018-12-07T11:18:29.694Z,932.88
2018-12-07T11:19:29.694Z,932.87
2018-12-07T11:20:29.673Z,932.86
2018-12-07T11:21:29.663Z,932.90
2018-12-07T11:22:29.668Z,932.93
2018-12-07T11:23:29.640Z,932.86
2018-12-07T11:24:29.642Z,932.87
2018-12-07T11:25:29.618Z,932.85
2018-12-07T11:26:29.613Z,932.76
2018-12-07T11:27:29.654Z,932.75
2018-12-07T11:28:29.590Z,932.74
2018-12-07T11:29:29.584Z,932.69
2018-12-07T11:30:29.562Z,932.69
2018-12-07T11:31:29.635Z,932.71
2018-12-07T11:32:29.549Z,932.61
2018-12-07T11:33:29.554Z,932.58
2018-12-07T11:34:29.531Z,932.58
2018-12-07T11:35:29.510Z,932.49
2018-12-07T11:36:29.501Z,932.50
2018-12-07T11:37:29.488Z,932.48
2018-12-07T11:38:29.494Z,932.44
2018-12-07T11:39:29.475Z,932.40
2018-12-07T11:40:29.456Z,932.40
2018-12-07T11:41:29.447Z,932.31
2018-12-07T11:42:29.439Z,932.31
2018-12-07T11:43:29.446Z,932.31
2018-12-07T11:44:29.417Z,932.31
2018-12-07T11:45:29.409Z,932.30
2018-12-07T11:46:29.392Z,932.27
2018-12-07T11:47:29.380Z,932.27
2018-12-07T11:48:29.386Z,932.22
2018-12-07T11:49:29.365Z,932.20
2018-12-07T11:50:29.350Z,932.16
2018-12-07T11:51:29.344Z,932.11
2018-12-07T11:52:29.330Z,932.07
2018-12-07T11:53:29.346Z,931.99
2018-12-07T11:54:29.305Z,931.97
2018-12-07T11:55:29.294Z,931.95
2018-12-07T11:56:29.295Z,931.92
2018-12-07T11:57:29.273Z,931.89
2018-12-07T11:58:29.301Z,931.83
2018-12-07T11:59:29.260Z,931.80
2018-12-07T12:00:29.246Z,931.75
2018-12-07T12:01:30.129Z,931.83
2018-12-07T12:02:29.231Z,931.77
2018-12-07T12:03:29.207Z,931.72
2018-12-07T12:04:29.395Z,931.65
2018-12-07T12:05:29.188Z,931.60
2018-12-07T12:06:29.189Z,931.55
2018-12-07T12:07:29.165Z,931.52
2018-12-07T12:08:29.153Z,931.50
2018-12-07T12:09:29.410Z,931.48
2018-12-07T12:10:29.134Z,931.44
2018-12-07T12:11:29.122Z,931.46
2018-12-07T12:12:29.110Z,931.40
2018-12-07T12:13:29.099Z,931.40
2018-12-07T12:15:57.702Z,931.37
2018-12-07T12:16:57.670Z,931.39
2018-12-07T12:17:57.660Z,931.39
2018-12-07T12:18:57.665Z,931.38
2018-12-07T12:19:57.637Z,931.35
2018-12-07T12:20:57.635Z,931.32
2018-12-07T12:22:04.651Z,931.34
2018-12-07T12:22:57.609Z,931.28
2018-12-07T12:23:57.612Z,931.28
2018-12-07T12:24:57.585Z,931.19
2018-12-07T12:25:57.573Z,931.20
2018-12-07T12:26:58.504Z,931.18
2018-12-07T12:27:57.557Z,931.13
2018-12-07T12:28:57.566Z,931.10
2018-12-07T12:29:57.533Z,931.08